Time;durP1;ratioP1;P1;durP2;ratioP2;P2;SDS_P1;SDS_P2;PMS_P1;PMS_P2;Temp;Humidity;BMP_temperature;BMP_pressure;BME280_temperature;BME280_humidity;BME280_pressure;Samples;Min_cycle;Max_cycle;Signal;HPM_P1;HPM_P2
2022/09/08 00:01:31;;;;;;;1.00;0.80;;;20.50;49.20;;;;;;6047153;23;20166;-85
2022/09/08 00:04:03;;;;;;;1.95;0.80;;;20.50;49.20;;;;;;6047503;23;20227;-85
2022/09/08 00:06:31;;;;;;;0.82;0.73;;;20.40;49.20;;;;;;6022768;23;20196;-85
2022/09/08 00:09:03;;;;;;;1.65;0.80;;;20.40;49.20;;;;;;6070678;23;20546;-84
2022/09/08 00:11:40;;;;;;;0.70;0.65;;;20.50;49.30;;;;;;6048555;23;20152;-85
2022/09/08 00:14:07;;;;;;;1.25;0.88;;;20.50;49.30;;;;;;6008275;23;20271;-85
2022/09/08 00:16:40;;;;;;;2.15;0.93;;;20.50;49.30;;;;;;5985326;23;20591;-86
2022/09/08 00:19:06;;;;;;;1.30;0.82;;;20.40;49.40;;;;;;5993333;23;20661;-85
2022/09/08 00:21:37;;;;;;;1.00;0.90;;;20.40;49.40;;;;;;6013809;23;20575;-85
2022/09/08 00:24:07;;;;;;;1.20;0.85;;;20.40;49.40;;;;;;5990688;23;20184;-85
2022/09/08 00:26:36;;;;;;;1.15;0.80;;;20.40;49.40;;;;;;5989706;23;20210;-86
2022/09/08 00:29:06;;;;;;;1.13;0.85;;;20.40;49.50;;;;;;5990352;23;20166;-87
2022/09/08 00:31:37;;;;;;;1.10;1.00;;;20.50;49.50;;;;;;5990235;23;20172;-87
2022/09/08 00:34:02;;;;;;;1.50;0.82;;;20.40;49.50;;;;;;6013993;23;20587;-84
2022/09/08 00:36:31;;;;;;;1.13;1.00;;;20.40;49.50;;;;;;6013258;23;20145;-84
2022/09/08 00:39:00;;;;;;;2.35;0.98;;;20.40;49.60;;;;;;5990309;23;20165;-85
2022/09/08 00:41:28;;;;;;;1.20;1.10;;;20.40;49.60;;;;;;5990437;23;20162;-84
2022/09/08 00:44:00;;;;;;;1.45;0.88;;;20.40;49.60;;;;;;5990802;23;20158;-85
2022/09/08 00:46:43;;;;;;;1.10;1.00;;;20.30;49.60;;;;;;6053428;23;20155;-85
2022/09/08 00:49:16;;;;;;;1.40;0.95;;;20.40;49.70;;;;;;6051517;23;20588;-85
2022/09/08 00:51:45;;;;;;;2.33;1.08;;;20.40;49.70;;;;;;6054309;23;20631;-85
2022/09/08 00:54:19;;;;;;;0.68;0.65;;;20.40;49.70;;;;;;6052478;23;20167;-84
2022/09/08 00:56:52;;;;;;;1.23;0.88;;;20.40;49.70;;;;;;5991235;23;20162;-85
2022/09/08 00:59:22;;;;;;;0.95;0.90;;;20.30;49.70;;;;;;6014501;23;20189;-86
2022/09/08 01:01:48;;;;;;;1.50;0.80;;;20.40;49.80;;;;;;6008621;23;20159;-85
2022/09/08 01:04:13;;;;;;;1.88;0.90;;;20.40;49.70;;;;;;5985418;23;20159;-85
2022/09/08 01:12:50;;;;;;;0.93;0.60;;;20.40;49.80;;;;;;6017313;23;20172;-84
2022/09/08 01:15:29;;;;;;;0.93;0.93;;;20.30;49.80;;;;;;6018045;23;20192;-84
2022/09/08 01:17:55;;;;;;;0.98;0.80;;;20.30;49.80;;;;;;6043965;23;20201;-85
2022/09/08 01:20:31;;;;;;;1.58;1.00;;;20.30;49.90;;;;;;6043487;23;20189;-85
2022/09/08 01:23:21;;;;;;;0.85;0.73;;;20.30;49.90;;;;;;6043679;23;20188;-85
2022/09/08 01:26:18;;;;;;;1.00;0.90;;;20.30;49.90;;;;;;6043413;23;20164;-85
2022/09/08 01:29:13;;;;;;;0.90;0.90;;;20.30;49.90;;;;;;5998011;23;20158;-85
2022/09/08 01:31:43;;;;;;;0.73;0.73;;;20.30;49.90;;;;;;5919322;23;20159;-84
2022/09/08 01:34:13;;;;;;;0.95;0.80;;;20.30;50.00;;;;;;5941645;23;20253;-84
2022/09/08 01:36:40;;;;;;;0.85;0.85;;;20.30;50.00;;;;;;5957577;23;20161;-84
2022/09/08 01:39:19;;;;;;;0.85;0.82;;;20.30;50.00;;;;;;5972794;23;20185;-85
2022/09/08 01:41:45;;;;;;;2.00;0.90;;;20.30;50.00;;;;;;6044053;23;20161;-85
2022/09/08 01:44:25;;;;;;;0.98;0.85;;;20.30;50.00;;;;;;6043441;23;20232;-86
2022/09/08 01:46:51;;;;;;;0.85;0.80;;;20.30;50.10;;;;;;6009940;23;20226;-85
2022/09/08 01:49:17;;;;;;;1.60;0.80;;;20.30;50.10;;;;;;5987082;23;20544;-85
2022/09/08 01:51:43;;;;;;;1.58;0.90;;;20.30;50.10;;;;;;5986883;23;20252;-86
2022/09/08 01:54:21;;;;;;;1.75;0.95;;;20.30;50.10;;;;;;5986862;23;20162;-86
2022/09/08 01:56:49;;;;;;;1.30;0.98;;;20.30;50.10;;;;;;5979457;23;20163;-84
2022/09/08 01:59:17;;;;;;;1.10;0.90;;;20.30;50.10;;;;;;5986735;23;20697;-86
2022/09/08 02:01:49;;;;;;;2.13;1.10;;;20.30;50.20;;;;;;5986799;23;20155;-86
2022/09/08 02:04:15;;;;;;;1.20;0.80;;;20.30;50.10;;;;;;5987311;23;20230;-85
2022/09/08 02:06:40;;;;;;;1.23;0.88;;;20.30;50.20;;;;;;6003388;23;20277;-85
2022/09/08 02:09:06;;;;;;;1.13;0.93;;;20.30;50.20;;;;;;6010255;23;20513;-85
2022/09/08 02:11:35;;;;;;;0.77;0.63;;;20.30;50.20;;;;;;6043389;23;20151;-85
2022/09/08 02:14:06;;;;;;;0.70;0.70;;;20.30;50.20;;;;;;6019526;23;20300;-85
2022/09/08 02:16:38;;;;;;;0.90;0.73;;;20.30;50.30;;;;;;6043798;23;20242;-86
2022/09/08 02:19:06;;;;;;;1.13;0.80;;;20.30;50.20;;;;;;6106533;23;20178;-86
2022/09/08 02:21:38;;;;;;;1.13;0.80;;;20.30;50.30;;;;;;6055857;23;20156;-85
2022/09/08 02:24:09;;;;;;;0.98;0.80;;;20.20;50.20;;;;;;6034231;23;20159;-85
2022/09/08 02:26:43;;;;;;;1.15;0.85;;;20.30;50.30;;;;;;6081691;23;20168;-86
2022/09/08 02:29:09;;;;;;;0.93;0.70;;;20.30;50.30;;;;;;6081548;23;20490;-85
2022/09/08 02:31:35;;;;;;;0.68;0.55;;;20.30;50.30;;;;;;6106654;23;20579;-85
2022/09/08 02:34:06;;;;;;;2.17;0.90;;;20.30;50.30;;;;;;6083030;23;20199;-86
2022/09/08 02:36:37;;;;;;;1.83;0.85;;;20.30;51.00;;;;;;6076470;23;20164;-86
2022/09/08 02:39:06;;;;;;;1.15;0.88;;;20.30;50.40;;;;;;6052658;23;20160;-85
2022/09/08 02:41:33;;;;;;;1.00;0.90;;;20.30;50.40;;;;;;6076295;23;20484;-86
2022/09/08 02:44:07;;;;;;;0.98;0.88;;;20.30;50.40;;;;;;6075878;23;20244;-85
2022/09/08 02:46:34;;;;;;;2.22;0.80;;;20.20;50.30;;;;;;6048192;23;20165;-85
2022/09/08 02:49:10;;;;;;;1.15;0.90;;;20.20;50.30;;;;;;6024132;23;20157;-85
2022/09/08 02:51:41;;;;;;;0.82;0.68;;;20.30;50.50;;;;;;6024240;23;20160;-85
2022/09/08 02:54:07;;;;;;;1.10;0.82;;;20.30;50.40;;;;;;6071931;23;20155;-86
2022/09/08 02:56:35;;;;;;;1.83;0.90;;;20.20;50.40;;;;;;6048038;23;20184;-85
2022/09/08 02:59:07;;;;;;;0.88;0.80;;;20.20;50.40;;;;;;6047750;23;20145;-85
2022/09/08 03:01:36;;;;;;;0.70;0.70;;;20.20;50.40;;;;;;6071517;23;20200;-86
2022/09/08 03:04:05;;;;;;;0.80;0.80;;;20.20;50.40;;;;;;5963725;23;20222;-86
2022/09/08 03:06:31;;;;;;;2.28;0.80;;;20.20;50.50;;;;;;5988913;23;20650;-85
2022/09/08 03:08:59;;;;;;;0.95;0.88;;;20.20;50.40;;;;;;5991155;23;20193;-86
2022/09/08 03:11:25;;;;;;;1.30;0.55;;;20.20;50.50;;;;;;5991042;23;20154;-85
2022/09/08 03:13:51;;;;;;;1.40;0.75;;;20.20;50.60;;;;;;5990533;23;20275;-86
2022/09/08 03:16:16;;;;;;;1.00;0.88;;;20.20;50.60;;;;;;6014366;23;20142;-84
2022/09/08 03:18:48;;;;;;;1.25;0.82;;;20.20;50.50;;;;;;6018513;23;20153;-85
2022/09/08 03:21:20;;;;;;;1.80;0.80;;;20.20;50.50;;;;;;5995568;23;20204;-85
2022/09/08 03:23:47;;;;;;;2.47;0.80;;;20.20;50.60;;;;;;5986046;23;20166;-86
2022/09/08 03:26:24;;;;;;;1.40;0.90;;;20.20;50.60;;;;;;5962788;23;20155;-85
2022/09/08 03:28:52;;;;;;;1.05;0.80;;;20.20;50.70;;;;;;5964577;23;20162;-84
2022/09/08 03:31:21;;;;;;;0.98;0.80;;;20.20;50.60;;;;;;5985949;23;20143;-86
2022/09/08 03:33:48;;;;;;;0.80;0.80;;;20.10;50.60;;;;;;5985776;23;20170;-84
2022/09/08 03:36:14;;;;;;;1.08;0.70;;;20.20;50.70;;;;;;6047317;23;20152;-85
2022/09/08 03:38:40;;;;;;;1.13;0.70;;;20.20;50.70;;;;;;6071329;23;20663;-85
2022/09/08 03:41:11;;;;;;;0.68;0.68;;;20.20;50.70;;;;;;6070505;23;20275;-85
2022/09/08 03:43:42;;;;;;;1.63;0.82;;;20.20;50.60;;;;;;6009765;23;20159;-85
2022/09/08 03:46:14;;;;;;;1.67;0.90;;;20.20;51.30;;;;;;6010157;23;20235;-86
2022/09/08 03:48:39;;;;;;;0.88;0.70;;;20.20;50.70;;;;;;6009977;23;20162;-84
2022/09/08 03:51:25;;;;;;;1.92;0.70;;;20.10;50.70;;;;;;5985941;23;20559;-84
2022/09/08 03:54:46;;;;;;;0.80;0.80;;;20.20;50.70;;;;;;5996569;23;20314;-85
2022/09/08 03:56:45;;;;;;;2.67;0.80;;;20.20;50.70;;;;;;6025700;23;20512;-84
2022/09/08 03:59:13;;;;;;;0.82;0.70;;;20.10;50.70;;;;;;6018741;23;20181;-85
2022/09/08 04:01:40;;;;;;;1.48;0.65;;;20.20;50.70;;;;;;6018653;23;20150;-86
2022/09/08 04:04:11;;;;;;;1.35;0.90;;;20.20;50.70;;;;;;6042038;23;20188;-85
2022/09/08 04:06:39;;;;;;;1.52;0.80;;;20.10;50.70;;;;;;6028656;23;20653;-84
2022/09/08 04:09:08;;;;;;;0.80;0.63;;;20.10;50.70;;;;;;5990890;23;20238;-85
2022/09/08 04:11:35;;;;;;;0.70;0.60;;;20.20;50.80;;;;;;5990146;23;20154;-85
2022/09/08 04:14:07;;;;;;;0.77;0.77;;;20.10;50.80;;;;;;5972585;23;20617;-84
2022/09/08 04:16:36;;;;;;;1.55;0.80;;;20.20;50.90;;;;;;6037267;23;20158;-85
2022/09/08 04:19:05;;;;;;;0.60;0.60;;;20.20;50.80;;;;;;6037483;23;20158;-86
2022/09/08 04:21:40;;;;;;;1.25;0.70;;;20.20;50.90;;;;;;6013419;23;20158;-87
2022/09/08 04:24:19;;;;;;;0.50;0.50;;;20.10;50.80;;;;;;6037116;23;20174;-84
2022/09/08 04:26:51;;;;;;;0.60;0.60;;;20.20;50.90;;;;;;6036293;23;20185;-85
2022/09/08 04:29:17;;;;;;;1.33;0.80;;;20.10;50.80;;;;;;5966763;23;20173;-85
2022/09/08 04:31:48;;;;;;;0.75;0.63;;;20.20;50.80;;;;;;5990253;23;20158;-85
2022/09/08 04:34:19;;;;;;;0.60;0.50;;;20.20;50.80;;;;;;5952793;24;20163;-84
2022/09/08 04:36:53;;;;;;;0.70;0.70;;;20.20;50.90;;;;;;5906606;24;20167;-86
2022/09/08 04:39:24;;;;;;;0.93;0.82;;;20.10;50.80;;;;;;5906651;24;20234;-85
2022/09/08 04:41:49;;;;;;;0.77;0.73;;;20.20;50.90;;;;;;5930080;24;20180;-83
2022/09/08 04:44:21;;;;;;;1.27;0.77;;;20.10;50.90;;;;;;5929898;24;20735;-85
2022/09/08 04:46:49;;;;;;;0.65;0.63;;;20.10;50.90;;;;;;5929642;24;20692;-84
2022/09/08 04:49:19;;;;;;;0.63;0.60;;;20.10;50.90;;;;;;5930034;24;20166;-85
2022/09/08 04:51:52;;;;;;;0.88;0.77;;;20.10;51.00;;;;;;5929802;24;20160;-85
2022/09/08 04:54:25;;;;;;;1.42;0.93;;;20.10;50.90;;;;;;5931212;24;20169;-84
2022/09/08 04:56:53;;;;;;;0.85;0.80;;;20.10;51.00;;;;;;5898707;23;20164;-85
2022/09/08 04:59:29;;;;;;;0.82;0.63;;;20.10;50.80;;;;;;5966359;23;20189;-85
2022/09/08 05:01:57;;;;;;;1.33;0.70;;;20.10;50.90;;;;;;5993460;23;20606;-86
2022/09/08 05:04:24;;;;;;;1.10;0.55;;;20.20;50.70;;;;;;6002969;23;20187;-84
2022/09/08 05:06:57;;;;;;;1.33;0.60;;;20.10;50.70;;;;;;6090108;23;20282;-85
2022/09/08 05:09:24;;;;;;;0.82;0.70;;;20.20;50.70;;;;;;6103358;23;20160;-85
2022/09/08 05:11:55;;;;;;;2.17;0.52;;;20.10;50.70;;;;;;6103056;23;20160;-84
2022/09/08 05:14:24;;;;;;;0.50;0.50;;;20.10;50.60;;;;;;6079060;23;20249;-85
2022/09/08 05:17:03;;;;;;;0.82;0.60;;;20.10;50.70;;;;;;6080581;23;20163;-86
2022/09/08 05:19:35;;;;;;;1.48;0.60;;;20.00;50.70;;;;;;6102675;23;20266;-86
2022/09/08 05:22:09;;;;;;;0.55;0.55;;;20.10;50.90;;;;;;6031588;23;20160;-84
2022/09/08 05:24:37;;;;;;;1.25;0.63;;;20.00;50.90;;;;;;6057004;23;20159;-84
2022/09/08 05:27:16;;;;;;;1.58;0.80;;;20.00;51.00;;;;;;6055347;23;20160;-84
2022/09/08 05:29:47;;;;;;;0.75;0.73;;;20.00;51.00;;;;;;6084660;23;20157;-84
2022/09/08 05:32:20;;;;;;;0.60;0.45;;;20.00;51.10;;;;;;6054928;23;20599;-84
2022/09/08 05:34:46;;;;;;;0.50;0.50;;;20.00;51.10;;;;;;6080658;23;20222;-83
2022/09/08 05:37:15;;;;;;;0.75;0.50;;;20.00;51.00;;;;;;6154175;23;20139;-84
2022/09/08 05:39:46;;;;;;;1.15;0.70;;;20.00;51.00;;;;;;6128737;23;20159;-84
2022/09/08 05:42:16;;;;;;;0.73;0.63;;;20.00;51.00;;;;;;6040389;23;20162;-84
2022/09/08 05:44:46;;;;;;;1.20;0.60;;;20.00;51.00;;;;;;6016704;23;20162;-84
2022/09/08 05:47:13;;;;;;;0.52;0.50;;;20.00;51.00;;;;;;5969653;23;20164;-85
2022/09/08 05:49:43;;;;;;;0.50;0.50;;;20.00;50.80;;;;;;6016528;23;20168;-84
2022/09/08 05:52:11;;;;;;;1.23;0.65;;;20.10;50.80;;;;;;6016329;23;20496;-85
2022/09/08 05:54:38;;;;;;;0.50;0.50;;;20.10;50.70;;;;;;5936808;23;20170;-83
2022/09/08 05:57:04;;;;;;;0.50;0.50;;;20.20;50.50;;;;;;5914628;23;20163;-83
2022/09/08 05:59:30;;;;;;;0.65;0.65;;;20.20;50.40;;;;;;5960471;23;20174;-84
2022/09/08 06:02:00;;;;;;;0.50;0.50;;;20.30;50.40;;;;;;5960594;23;20207;-85
2022/09/08 06:04:25;;;;;;;0.80;0.60;;;20.30;50.50;;;;;;5936961;23;20610;-83
2022/09/08 06:06:51;;;;;;;0.50;0.50;;;20.30;50.30;;;;;;5847975;23;3333098;-84
2022/09/08 06:09:20;;;;;;;0.60;0.60;;;20.30;50.10;;;;;;5962655;23;20170;-83
2022/09/08 06:11:46;;;;;;;0.57;0.57;;;20.30;50.10;;;;;;5961062;23;20496;-85
2022/09/08 06:14:11;;;;;;;0.50;0.50;;;20.40;50.10;;;;;;6014688;23;20164;-83
2022/09/08 06:16:37;;;;;;;0.47;0.47;;;20.40;50.00;;;;;;6069142;23;20149;-84
2022/09/08 06:19:03;;;;;;;0.70;0.70;;;20.40;50.00;;;;;;6040858;23;20149;-84
2022/09/08 06:21:34;;;;;;;1.17;0.52;;;20.40;50.00;;;;;;6042230;23;20205;-85
2022/09/08 06:24:04;;;;;;;0.50;0.50;;;20.40;49.90;;;;;;6043067;23;20165;-84
2022/09/08 06:26:48;;;;;;;0.95;0.70;;;20.40;50.10;;;;;;6064469;23;20603;-84
2022/09/08 06:29:31;;;;;;;0.65;0.60;;;20.30;50.10;;;;;;6038225;23;20247;-85
2022/09/08 06:32:11;;;;;;;0.65;0.60;;;20.30;50.10;;;;;;6038266;23;20602;-84
2022/09/08 06:34:50;;;;;;;0.60;0.60;;;20.40;50.00;;;;;;6038396;23;20150;-85
2022/09/08 06:37:35;;;;;;;0.50;0.50;;;20.40;49.90;;;;;;5981456;24;20218;-84
2022/09/08 06:40:07;;;;;;;0.80;0.70;;;20.40;49.90;;;;;;5903172;24;20188;-86
2022/09/08 06:42:55;;;;;;;0.88;0.73;;;20.50;49.90;;;;;;5881709;24;20242;-85
2022/09/08 06:45:24;;;;;;;0.70;0.70;;;20.50;49.80;;;;;;5903451;24;20157;-85
2022/09/08 06:48:07;;;;;;;0.50;0.50;;;20.40;49.80;;;;;;5881594;24;20182;-84
2022/09/08 06:50:33;;;;;;;0.50;0.50;;;20.50;49.80;;;;;;5844550;24;20165;-84
2022/09/08 06:53:07;;;;;;;0.50;0.50;;;20.40;50.10;;;;;;5875817;24;20161;-84
2022/09/08 06:55:40;;;;;;;0.80;0.75;;;20.30;50.10;;;;;;5855514;24;20674;-83
2022/09/08 06:58:21;;;;;;;0.60;0.60;;;20.30;50.30;;;;;;5800647;24;20198;-84
2022/09/08 07:01:08;;;;;;;0.82;0.63;;;20.40;50.20;;;;;;5845150;24;20190;-84
2022/09/08 07:04:11;;;;;;;0.68;0.68;;;20.40;50.20;;;;;;5884020;24;20164;-84
2022/09/08 07:06:54;;;;;;;0.50;0.50;;;20.40;50.20;;;;;;5867622;24;20265;-84
2022/09/08 07:09:33;;;;;;;0.60;0.60;;;20.40;50.30;;;;;;5894677;24;20640;-85
2022/09/08 07:12:17;;;;;;;0.60;0.60;;;20.40;50.30;;;;;;5940729;23;20166;-84
2022/09/08 07:14:56;;;;;;;0.68;0.68;;;20.40;50.10;;;;;;5989009;23;20143;-84
2022/09/08 07:17:32;;;;;;;2.58;0.68;;;20.50;50.20;;;;;;5987346;23;20169;-83
2022/09/08 07:19:58;;;;;;;0.52;0.52;;;20.50;50.00;;;;;;5988394;23;20231;-85
2022/09/08 07:22:35;;;;;;;0.50;0.50;;;20.60;50.00;;;;;;5963135;23;20162;-83
2022/09/08 07:25:21;;;;;;;0.52;0.52;;;20.60;50.00;;;;;;5987289;23;20162;-83
2022/09/08 07:27:56;;;;;;;0.60;0.60;;;20.60;49.90;;;;;;5989708;23;20638;-84
2022/09/08 07:31:43;;;;;;;1.48;0.70;;;20.50;49.90;;;;;;6016587;23;20161;-84
2022/09/08 07:33:52;;;;;;;1.08;0.60;;;20.60;49.80;;;;;;6025046;23;20261;-85
2022/09/08 07:36:26;;;;;;;1.77;0.70;;;20.70;49.80;;;;;;6020327;23;20172;-84
2022/09/08 07:38:55;;;;;;;1.75;0.70;;;20.60;49.90;;;;;;6020588;23;20145;-85
2022/09/08 07:41:25;;;;;;;0.70;0.70;;;20.60;50.10;;;;;;6019942;23;20169;-86
2022/09/08 07:43:53;;;;;;;0.70;0.70;;;20.60;49.90;;;;;;6020067;23;20184;-84
2022/09/08 07:46:49;;;;;;;0.73;0.73;;;20.50;50.00;;;;;;6067005;23;20272;-85
2022/09/08 07:49:43;;;;;;;0.60;0.60;;;20.50;50.00;;;;;;6048182;23;20153;-85
2022/09/08 07:52:35;;;;;;;0.98;0.85;;;20.50;50.00;;;;;;6043537;23;20589;-86
2022/09/08 07:55:25;;;;;;;0.60;0.60;;;20.50;50.00;;;;;;6044435;23;20162;-86
2022/09/08 07:58:06;;;;;;;1.38;0.90;;;20.60;49.90;;;;;;6067507;23;20181;-84
2022/09/08 08:00:54;;;;;;;0.77;0.60;;;20.60;49.90;;;;;;6030681;23;20183;-84
2022/09/08 08:03:32;;;;;;;1.00;0.60;;;20.60;50.00;;;;;;6038805;23;20181;-85
2022/09/08 08:06:02;;;;;;;0.63;0.63;;;20.60;50.00;;;;;;5986782;23;20723;-85
2022/09/08 08:08:58;;;;;;;0.93;0.88;;;20.60;50.00;;;;;;6010724;23;20155;-85
2022/09/08 08:12:04;;;;;;;0.60;0.60;;;20.60;50.10;;;;;;5986319;23;20143;-85
2022/09/08 08:14:41;;;;;;;0.60;0.60;;;20.60;50.00;;;;;;6010057;23;20150;-85
2022/09/08 08:17:32;;;;;;;0.85;0.80;;;20.70;50.00;;;;;;6009865;23;20233;-86
2022/09/08 08:20:31;;;;;;;0.77;0.73;;;20.70;50.20;;;;;;5991347;23;20539;-85
2022/09/08 08:23:21;;;;;;;1.73;0.80;;;20.60;50.00;;;;;;5990100;23;20159;-86
2022/09/08 08:25:54;;;;;;;0.60;0.60;;;20.60;49.80;;;;;;5988709;23;20207;-86
2022/09/08 08:28:23;;;;;;;0.80;0.80;;;20.70;50.00;;;;;;5981704;24;20159;-86
2022/09/08 08:31:11;;;;;;;0.82;0.82;;;20.60;49.80;;;;;;5958817;24;20589;-86
2022/09/08 08:33:45;;;;;;;0.75;0.75;;;20.70;50.00;;;;;;5970505;23;20165;-85
2022/09/08 08:36:15;;;;;;;0.93;0.70;;;20.60;50.10;;;;;;6005200;23;20188;-85
2022/09/08 08:38:46;;;;;;;0.73;0.73;;;20.60;50.10;;;;;;6047560;23;20232;-87
2022/09/08 08:41:40;;;;;;;0.77;0.60;;;20.70;50.00;;;;;;6047185;23;20194;-85
2022/09/08 08:44:25;;;;;;;0.80;0.70;;;20.70;50.00;;;;;;6071856;23;20168;-85
2022/09/08 08:47:14;;;;;;;0.70;0.68;;;20.70;50.00;;;;;;6023942;23;20227;-84
2022/09/08 08:50:12;;;;;;;0.80;0.80;;;20.70;50.10;;;;;;6067550;23;20250;-86
2022/09/08 08:53:17;;;;;;;0.90;0.90;;;20.70;50.20;;;;;;6031986;23;20194;-84
2022/09/08 08:56:24;;;;;;;0.70;0.68;;;20.70;50.20;;;;;;6009625;23;20162;-85
2022/09/08 08:59:27;;;;;;;0.80;0.77;;;20.70;50.30;;;;;;6003133;23;20170;-84
2022/09/08 09:02:19;;;;;;;1.23;1.00;;;20.80;50.10;;;;;;6025974;23;20165;-84
2022/09/08 09:05:05;;;;;;;0.70;0.70;;;20.80;50.20;;;;;;6042216;23;20670;-85
2022/09/08 09:07:52;;;;;;;0.50;0.50;;;20.80;50.10;;;;;;6014061;23;20278;-86
2022/09/08 09:10:43;;;;;;;0.90;0.90;;;20.80;50.10;;;;;;6014457;23;20158;-85
2022/09/08 09:13:39;;;;;;;0.77;0.73;;;20.90;50.30;;;;;;6012736;23;20162;-85
2022/09/08 09:16:55;;;;;;;0.98;0.90;;;20.80;50.40;;;;;;5994255;23;20240;-86
2022/09/08 09:19:53;;;;;;;0.80;0.80;;;20.70;50.40;;;;;;5997552;23;20189;-85
2022/09/08 09:22:43;;;;;;;0.75;0.75;;;20.70;50.50;;;;;;6043279;23;20142;-84
2022/09/08 09:25:28;;;;;;;2.00;0.95;;;20.80;50.60;;;;;;6078164;23;20160;-83
2022/09/08 09:28:22;;;;;;;;;;;;;;;;;;;;;
2022/09/08 09:31:19;;;;;;;0.98;0.80;;;20.70;50.50;;;;;;6097968;23;20671;-85
2022/09/08 09:34:21;;;;;;;0.75;0.70;;;20.70;50.50;;;;;;6106263;23;20160;-85
2022/09/08 09:37:33;;;;;;;1.10;1.00;;;20.70;50.60;;;;;;6062924;23;20565;-85
2022/09/08 09:40:28;;;;;;;1.13;0.60;;;20.70;51.30;;;;;;6076424;23;20179;-84
2022/09/08 09:43:44;;;;;;;0.90;0.90;;;20.80;50.60;;;;;;6077432;23;20223;-84
2022/09/08 09:46:38;;;;;;;1.05;0.80;;;20.80;50.50;;;;;;6088199;23;20160;-85
2022/09/08 09:49:31;;;;;;;0.70;0.70;;;20.80;50.50;;;;;;6102201;23;20134;-85
2022/09/08 09:52:34;;;;;;;0.80;0.80;;;20.80;50.50;;;;;;6053321;23;20479;-84
2022/09/08 09:55:23;;;;;;;0.90;0.80;;;20.80;50.30;;;;;;6056634;23;20163;-86
2022/09/08 09:58:21;;;;;;;0.80;0.80;;;20.80;50.40;;;;;;6101790;23;20132;-85
2022/09/08 10:01:22;;;;;;;0.93;0.88;;;20.80;50.30;;;;;;6127527;23;20164;-85
2022/09/08 10:04:21;;;;;;;0.80;0.80;;;20.80;50.30;;;;;;6127893;23;20609;-86
2022/09/08 10:07:19;;;;;;;0.70;0.70;;;20.80;50.30;;;;;;6134675;23;20196;-88
2022/09/08 10:10:23;;;;;;;0.98;0.98;;;20.80;50.30;;;;;;6070534;23;20148;-89
2022/09/08 10:13:16;;;;;;;2.03;1.10;;;20.80;50.30;;;;;;6043702;23;20173;-86
2022/09/08 10:16:21;;;;;;;1.88;0.90;;;20.70;50.40;;;;;;6014204;23;20575;-85
2022/09/08 10:19:26;;;;;;;0.80;0.80;;;20.70;50.40;;;;;;6017701;23;20173;-85
2022/09/08 10:22:16;;;;;;;0.85;0.70;;;20.80;50.30;;;;;;6012626;23;20169;-87
2022/09/08 10:25:31;;;;;;;;;;;;;;;;;;;;;
2022/09/08 10:28:49;;;;;;;0.65;0.65;;;20.80;50.50;;;;;;6027686;23;20162;-87
2022/09/08 10:32:09;;;;;;;1.05;0.98;;;20.80;50.50;;;;;;5982472;24;20169;-87
2022/09/08 10:35:21;;;;;;;0.88;0.88;;;20.80;50.50;;;;;;6007836;23;20258;-87
2022/09/08 10:38:10;;;;;;;0.82;0.82;;;20.80;50.50;;;;;;5999425;23;20546;-86
2022/09/08 10:41:21;;;;;;;0.73;0.73;;;20.80;50.50;;;;;;5935350;24;20190;-88
2022/09/08 10:44:29;;;;;;;0.90;0.90;;;20.80;50.50;;;;;;6045815;23;20165;-86
2022/09/08 10:47:34;;;;;;;0.90;0.90;;;20.80;50.50;;;;;;6039887;23;20177;-85
2022/09/08 10:50:12;;;;;;;0.73;0.73;;;20.80;50.50;;;;;;6063774;23;20216;-88
2022/09/08 10:53:07;;;;;;;0.90;0.80;;;20.80;50.40;;;;;;6040257;23;20157;-86
2022/09/08 10:56:25;;;;;;;0.90;0.90;;;20.80;50.40;;;;;;6042683;23;20275;-86
2022/09/08 10:59:15;;;;;;;0.90;0.90;;;20.80;50.40;;;;;;6042802;23;20162;-85
2022/09/08 11:01:54;;;;;;;0.63;0.63;;;20.80;50.40;;;;;;6066669;23;20141;-86
2022/09/08 11:04:44;;;;;;;0.80;0.80;;;20.80;50.30;;;;;;6067600;23;20137;-85
2022/09/08 11:07:22;;;;;;;1.08;0.88;;;20.80;50.30;;;;;;6082167;23;20253;-87
2022/09/08 11:10:40;;;;;;;0.80;0.80;;;20.70;50.30;;;;;;6037480;23;20166;-85
2022/09/08 11:13:37;;;;;;;;;;;;;;;;;;;;;
2022/09/08 11:17:07;;;;;;;;;;;;;;;;;;;;;
2022/09/08 12:22:52;;;;;;;1.20;1.10;;;20.80;49.60;;;;;;6191908;22;20210;-85
2022/09/08 12:26:19;;;;;;;;;;;;;;;;;;;;;
2022/09/08 12:29:28;;;;;;;2.55;1.10;;;20.80;49.70;;;;;;5969330;23;20666;-86
2022/09/08 14:37:14;;;;;;;1.30;1.20;;;20.90;49.20;;;;;;6127304;23;20167;-83
2022/09/08 14:40:08;;;;;;;1.00;1.00;;;20.90;49.40;;;;;;5970694;23;20242;-82
2022/09/08 14:43:03;;;;;;;1.02;1.00;;;20.90;49.60;;;;;;5972037;23;20154;-83
2022/09/08 14:45:42;;;;;;;1.60;1.27;;;20.90;49.70;;;;;;6032875;23;20165;-83
2022/09/08 15:16:18;;;;;;;2.10;1.00;;;20.90;49.60;;;;;;6128824;23;20227;-83
2022/09/08 15:18:52;;;;;;;1.42;1.33;;;20.90;49.70;;;;;;6076575;23;20160;-83
2022/09/08 15:21:22;;;;;;;1.90;1.52;;;20.80;49.80;;;;;;6077200;23;20263;-83
2022/09/08 15:24:01;;;;;;;4.40;1.30;;;20.80;50.00;;;;;;6078313;23;20200;-82
2022/09/08 15:26:50;;;;;;;3.63;1.45;;;20.80;50.00;;;;;;6052368;23;20156;-82
2022/09/08 15:29:34;;;;;;;2.50;1.30;;;20.90;50.10;;;;;;6015059;23;20617;-82
2022/09/08 15:32:20;;;;;;;1.38;1.27;;;20.80;50.00;;;;;;6015116;23;20186;-82
2022/09/08 15:34:55;;;;;;;1.40;1.30;;;20.90;50.00;;;;;;6021204;23;20496;-82
2022/09/08 15:37:35;;;;;;;1.13;1.10;;;20.90;50.00;;;;;;6036000;23;20534;-82
2022/09/08 15:40:22;;;;;;;2.03;1.30;;;20.90;50.10;;;;;;5946331;24;20675;-83
2022/09/08 15:43:00;;;;;;;1.20;1.10;;;20.90;50.10;;;;;;5925592;24;20613;-83
2022/09/08 15:46:00;;;;;;;1.80;1.30;;;20.80;50.20;;;;;;5843722;24;20244;-83
2022/09/08 15:49:12;;;;;;;1.67;1.25;;;20.90;50.30;;;;;;5772488;24;20684;-83
2022/09/08 15:51:48;;;;;;;1.30;1.20;;;20.90;50.30;;;;;;5810527;24;20195;-82
2022/09/08 15:54:45;;;;;;;2.50;1.27;;;20.90;50.30;;;;;;5786013;24;20169;-81
2022/09/08 15:57:22;;;;;;;1.13;1.08;;;20.90;50.30;;;;;;5777649;24;20495;-82
2022/09/08 16:00:13;;;;;;;1.23;1.17;;;20.90;50.30;;;;;;5765081;24;20188;-83
2022/09/08 16:03:06;;;;;;;1.30;1.20;;;20.80;50.20;;;;;;5786653;24;20165;-83
2022/09/08 16:05:51;;;;;;;1.40;1.27;;;20.90;50.10;;;;;;5808784;24;20171;-83
2022/09/08 16:08:39;;;;;;;1.40;1.30;;;20.90;50.10;;;;;;5815744;24;20185;-83
2022/09/08 16:11:41;;;;;;;2.28;1.15;;;20.90;50.10;;;;;;5859820;24;20177;-83
2022/09/08 16:14:17;;;;;;;1.40;1.30;;;20.80;50.00;;;;;;5917275;24;20640;-83
2022/09/08 16:16:54;;;;;;;1.60;1.40;;;20.90;50.10;;;;;;5943418;24;20191;-83
2022/09/08 16:19:24;;;;;;;2.67;1.50;;;20.80;50.10;;;;;;5920807;24;20233;-83
2022/09/08 16:22:09;;;;;;;1.92;1.23;;;20.90;50.20;;;;;;5890394;24;20579;-83
2022/09/08 16:24:57;;;;;;;2.60;1.40;;;20.90;50.80;;;;;;5918693;24;20162;-84
2022/09/08 16:27:57;;;;;;;2.53;1.35;;;20.90;50.10;;;;;;5926082;24;20617;-82
2022/09/08 16:30:37;;;;;;;1.20;1.10;;;20.90;50.10;;;;;;5891492;24;20165;-83
2022/09/08 16:33:31;;;;;;;3.58;1.40;;;20.90;50.10;;;;;;5882365;24;20529;-83
2022/09/08 16:36:11;;;;;;;1.95;1.20;;;20.90;50.10;;;;;;5881302;24;20479;-83
2022/09/08 16:38:49;;;;;;;1.77;1.52;;;20.90;50.20;;;;;;5899375;23;20159;-83
2022/09/08 16:41:39;;;;;;;2.38;1.60;;;20.90;50.10;;;;;;5900352;24;20196;-83
2022/09/08 16:44:22;;;;;;;2.50;1.52;;;20.80;49.90;;;;;;5817477;24;20160;-83
2022/09/08 16:47:03;;;;;;;1.63;1.52;;;20.80;49.80;;;;;;5902513;24;20251;-84
2022/09/08 16:49:43;;;;;;;2.13;1.58;;;20.90;50.10;;;;;;5863389;24;20167;-83
2022/09/08 16:52:24;;;;;;;1.95;1.67;;;20.90;50.00;;;;;;5907634;24;20596;-84
2022/09/08 16:55:23;;;;;;;2.65;1.58;;;20.80;49.90;;;;;;5862530;24;20501;-84
2022/09/08 16:58:13;;;;;;;4.45;1.38;;;20.90;49.90;;;;;;5942600;23;20156;-84
2022/09/08 17:00:56;;;;;;;2.25;1.40;;;20.90;49.90;;;;;;6008690;23;20222;-84
2022/09/08 17:03:40;;;;;;;3.20;1.30;;;20.90;49.60;;;;;;5959727;23;20579;-83
2022/09/08 17:13:30;;;;;;;4.57;1.70;;;20.90;49.90;;;;;;6096334;23;20154;-83
2022/09/08 17:16:34;;;;;;;2.85;1.50;;;20.90;50.10;;;;;;6095182;23;20168;-84
2022/09/08 17:19:10;;;;;;;2.70;1.60;;;20.80;50.00;;;;;;6071560;23;20485;-84
2022/09/08 17:22:02;;;;;;;1.73;1.30;;;20.90;49.80;;;;;;6094644;23;20216;-84
2022/09/08 17:25:01;;;;;;;2.30;1.73;;;20.90;49.90;;;;;;6094193;23;20148;-83
2022/09/08 17:27:50;;;;;;;2.33;1.83;;;20.90;50.00;;;;;;6095386;23;20164;-83
2022/09/08 17:30:23;;;;;;;1.85;1.60;;;20.90;50.10;;;;;;6095266;23;20156;-82
2022/09/08 17:33:22;;;;;;;2.72;1.50;;;20.90;49.90;;;;;;6094803;23;20224;-83
2022/09/08 17:36:16;;;;;;;1.75;1.40;;;20.90;49.80;;;;;;6095081;23;20204;-83
2022/09/08 17:38:55;;;;;;;1.50;1.40;;;20.90;49.90;;;;;;6070613;23;20141;-82
2022/09/08 17:41:46;;;;;;;1.25;1.15;;;20.90;49.80;;;;;;6066208;23;20184;-83
2022/09/08 17:44:30;;;;;;;1.45;1.35;;;20.90;49.80;;;;;;6013971;23;20224;-84
2022/09/08 17:47:03;;;;;;;1.88;1.40;;;20.90;49.70;;;;;;5958761;24;20586;-83
2022/09/08 17:49:39;;;;;;;3.55;1.67;;;20.90;49.80;;;;;;5957891;24;20156;-83